Time;durP1;ratioP1;P1;durP2;ratioP2;P2;SDS_P1;SDS_P2;PMS_P1;PMS_P2;Temp;Humidity;BMP_temperature;BMP_pressure;BME280_temperature;BME280_humidity;BME280_pressure;Samples;Min_cycle;Max_cycle;Signal;HPM_P1;HPM_P2
2021/10/27 00:00:43;;;;;;;2.17;1.98;;;20.20;48.40;;;24.03;32.28;101556.31;5054534;28;20052;-7
2021/10/27 00:03:09;;;;;;;1.73;1.63;;;20.20;48.40;;;24.02;32.37;101559.06;5055249;28;20041;-7
2021/10/27 00:05:36;;;;;;;2.47;1.92;;;20.20;48.40;;;24.01;32.21;101560.03;5054674;28;20041;-7
2021/10/27 00:08:02;;;;;;;2.40;1.55;;;20.20;48.50;;;24.01;32.34;101562.72;5054483;28;20068;-8
2021/10/27 00:10:28;;;;;;;2.00;1.70;;;20.20;48.40;;;24.03;32.38;101566.13;5055165;28;20053;-7
2021/10/27 00:12:54;;;;;;;3.13;2.10;;;20.20;49.00;;;24.00;32.38;101571.69;5054543;28;20110;-7
2021/10/27 00:15:19;;;;;;;2.17;1.98;;;20.20;48.40;;;24.02;32.49;101567.97;5054576;28;20436;-7
2021/10/27 00:17:47;;;;;;;3.63;2.10;;;20.20;48.40;;;24.02;32.26;101569.75;5054748;28;20049;-7
2021/10/27 00:20:13;;;;;;;2.25;1.80;;;20.20;48.40;;;24.01;32.21;101573.41;5035430;28;20037;-8
2021/10/27 00:22:40;;;;;;;2.88;2.03;;;20.20;48.30;;;24.02;32.44;101572.44;5054296;28;20053;-7
2021/10/27 00:25:08;;;;;;;2.55;1.80;;;20.20;48.40;;;24.00;32.35;101566.31;5054306;28;20037;-7
2021/10/27 00:27:34;;;;;;;2.13;1.92;;;20.20;48.50;;;23.99;32.20;101565.47;5054355;28;20045;-8
2021/10/27 00:29:59;;;;;;;1.95;1.70;;;20.20;48.40;;;24.00;32.30;101569.00;5054065;28;20067;-8
2021/10/27 00:32:25;;;;;;;2.00;1.70;;;20.20;48.40;;;24.01;32.29;101576.06;5054299;28;20049;-7
2021/10/27 00:34:51;;;;;;;3.63;2.00;;;20.20;48.40;;;24.01;32.32;101581.41;5054247;28;20477;-7
2021/10/27 00:37:17;;;;;;;2.47;1.83;;;20.20;48.40;;;23.99;32.43;101570.81;5054145;28;20048;-7
2021/10/27 00:39:45;;;;;;;1.85;1.70;;;20.20;48.40;;;24.02;32.22;101569.75;5054155;28;20045;-8
2021/10/27 00:42:12;;;;;;;1.98;1.77;;;20.20;48.40;;;24.02;32.40;101575.09;5054184;28;20112;-7
2021/10/27 00:44:41;;;;;;;1.98;1.83;;;20.20;48.30;;;24.01;32.17;101570.72;5054296;28;20182;-8
2021/10/27 00:47:10;;;;;;;2.47;1.80;;;20.20;48.40;;;24.00;32.36;101575.19;5054026;28;20060;-8
2021/10/27 00:49:39;;;;;;;1.95;1.75;;;20.20;48.40;;;24.02;32.25;101569.75;5053970;28;20103;-8
2021/10/27 00:52:09;;;;;;;1.88;1.70;;;20.20;48.40;;;23.98;32.41;101561.09;5054228;28;20056;-7
2021/10/27 00:54:36;;;;;;;2.63;1.88;;;20.20;48.40;;;24.01;32.26;101570.72;5053271;28;20057;-7
2021/10/27 00:57:02;;;;;;;1.90;1.67;;;20.10;48.40;;;24.00;32.45;101567.19;5053844;28;20045;-7
2021/10/27 00:59:29;;;;;;;1.90;1.80;;;20.20;48.40;;;24.00;32.16;101564.50;5052587;28;20076;-7
2021/10/27 01:01:56;;;;;;;2.38;1.88;;;20.10;48.40;;;23.96;32.33;101568.34;5053780;28;20437;-8
2021/10/27 01:04:26;;;;;;;2.72;1.95;;;20.10;48.50;;;23.95;32.26;101563.94;5053932;28;20078;-8
2021/10/27 01:06:52;;;;;;;1.60;1.50;;;20.20;48.40;;;23.96;32.23;101564.81;5053640;28;20057;-7
2021/10/27 01:09:18;;;;;;;2.47;1.80;;;20.10;48.40;;;23.99;32.38;101562.81;5054333;28;20052;-8
2021/10/27 01:11:45;;;;;;;1.90;1.80;;;20.10;48.50;;;23.99;32.26;101559.25;5053330;28;20060;-7
2021/10/27 01:14:11;;;;;;;2.85;1.80;;;20.20;48.40;;;23.98;32.28;101561.09;5053691;28;20056;-7
2021/10/27 01:16:38;;;;;;;2.70;1.80;;;20.10;48.40;;;23.98;32.53;101565.56;5053360;28;20062;-7
2021/10/27 01:19:05;;;;;;;1.90;1.70;;;20.10;48.40;;;23.94;32.28;101556.03;5053428;28;20400;-7
2021/10/27 01:21:31;;;;;;;2.38;1.85;;;20.10;48.40;;;23.96;32.43;101557.66;5053463;28;20389;-7
2021/10/27 01:23:58;;;;;;;3.10;2.22;;;20.20;48.50;;;23.98;32.24;101561.09;5053336;28;20041;-7
2021/10/27 01:26:26;;;;;;;1.80;1.70;;;20.10;48.50;;;23.95;32.41;101561.28;5053379;28;20440;-7
2021/10/27 01:28:52;;;;;;;2.25;1.77;;;20.10;48.50;;;23.96;32.30;101560.31;5053381;28;20072;-7
2021/10/27 01:31:19;;;;;;;2.60;1.85;;;20.10;48.50;;;23.96;32.34;101563.00;5053456;28;20374;-7
2021/10/27 01:33:48;;;;;;;2.20;1.90;;;20.10;48.50;;;23.95;32.31;101560.44;5053386;28;20052;-7
2021/10/27 01:36:21;;;;;;;2.75;2.10;;;20.10;48.60;;;23.92;32.46;101556.13;5053342;28;20052;-7
2021/10/27 01:38:48;;;;;;;2.28;1.60;;;20.10;48.60;;;23.94;32.27;101562.25;5053547;28;20044;-7
2021/10/27 01:41:15;;;;;;;2.30;1.65;;;20.10;48.60;;;23.95;32.41;101566.63;5053165;28;20557;-7
2021/10/27 01:43:55;;;;;;;2.03;1.88;;;20.10;48.60;;;23.94;32.53;101569.38;5053065;28;20049;-7
2021/10/27 01:46:32;;;;;;;1.98;1.88;;;20.10;48.50;;;23.93;32.29;101563.19;5050381;28;20406;-7
2021/10/27 01:48:59;;;;;;;1.75;1.65;;;20.10;48.60;;;23.93;32.27;101559.66;5053404;28;20071;-7
2021/10/27 01:51:26;;;;;;;2.75;2.00;;;20.10;48.60;;;23.95;32.40;101560.44;5053035;28;20045;-7
2021/10/27 01:53:53;;;;;;;2.00;1.70;;;20.10;48.60;;;23.92;32.54;101557.94;5053335;28;20389;-7
2021/10/27 01:56:20;;;;;;;2.10;1.70;;;20.10;48.60;;;23.94;32.28;101561.38;5052816;28;20513;-7
2021/10/27 01:58:48;;;;;;;1.85;1.75;;;20.00;48.60;;;23.90;32.46;101560.72;5052939;28;20508;-7
2021/10/27 02:01:15;;;;;;;2.42;1.90;;;20.00;48.70;;;23.94;32.34;101567.59;5052847;28;20053;-8
2021/10/27 02:03:42;;;;;;;2.35;1.70;;;20.00;48.70;;;23.95;32.34;101565.78;5052307;28;20099;-7
2021/10/27 02:06:08;;;;;;;2.35;1.70;;;20.00;48.70;;;23.93;32.60;101562.34;5053017;28;20438;-7
2021/10/27 02:08:33;;;;;;;1.65;1.55;;;20.00;48.70;;;23.92;32.36;101558.78;5052832;28;20128;-7
2021/10/27 02:10:59;;;;;;;1.90;1.75;;;20.10;48.70;;;23.94;32.41;101562.25;5052707;28;20052;-7
2021/10/27 02:13:26;;;;;;;1.70;1.60;;;20.10;48.60;;;23.93;32.58;101560.53;5034838;28;20041;-7
2021/10/27 02:15:53;;;;;;;2.90;1.70;;;20.10;48.60;;;23.92;32.33;101561.47;5052664;28;20053;-8
2021/10/27 02:18:18;;;;;;;1.67;1.50;;;20.10;48.60;;;23.95;32.30;101563.09;5052659;28;20072;-7
2021/10/27 02:20:45;;;;;;;3.20;2.00;;;20.10;48.70;;;23.93;32.33;101563.19;5052628;28;20485;-7
2021/10/27 02:23:12;;;;;;;1.60;1.50;;;20.00;48.60;;;23.91;32.44;101553.56;5052604;28;20041;-7
2021/10/27 02:25:37;;;;;;;2.38;1.83;;;20.10;48.60;;;23.93;32.28;101563.19;5052687;28;20045;-7
2021/10/27 02:28:03;;;;;;;3.10;1.80;;;20.00;48.60;;;23.93;32.50;101565.88;5052522;28;20094;-8
2021/10/27 02:30:29;;;;;;;1.73;1.60;;;20.00;48.60;;;23.89;32.51;101560.81;5052952;28;20064;-7
2021/10/27 02:32:55;;;;;;;1.90;1.70;;;20.00;48.60;;;23.92;32.57;101566.81;5052611;28;20118;-7
2021/10/27 02:35:21;;;;;;;2.60;1.85;;;20.00;48.60;;;23.94;32.46;101566.72;5052764;28;20048;-7
2021/10/27 02:37:47;;;;;;;2.00;1.83;;;20.00;48.60;;;23.90;32.37;101563.38;5052671;28;20103;-7
2021/10/27 02:40:14;;;;;;;1.70;1.60;;;20.00;48.70;;;23.93;32.58;101565.00;5052438;28;20053;-8
2021/10/27 02:42:41;;;;;;;2.20;1.50;;;20.00;48.70;;;23.92;32.35;101564.13;5052323;28;20044;-7
2021/10/27 02:45:10;;;;;;;1.48;1.30;;;20.00;48.70;;;23.92;32.32;101563.28;5052824;28;20045;-8
2021/10/27 02:47:38;;;;;;;2.20;2.00;;;20.10;48.60;;;23.93;32.42;101562.34;5052728;28;20056;-9
2021/10/27 02:50:05;;;;;;;2.40;1.55;;;20.00;48.60;;;23.90;32.38;101554.53;5052159;28;20052;-7
2021/10/27 02:52:31;;;;;;;1.58;1.33;;;20.10;48.60;;;23.94;32.27;101553.34;5032161;28;20054;-7
2021/10/27 02:54:57;;;;;;;1.83;1.65;;;20.00;48.60;;;23.91;32.36;101557.09;5052278;28;20041;-8
2021/10/27 02:57:24;;;;;;;1.88;1.52;;;20.10;48.60;;;23.92;32.47;101561.47;5052153;28;20132;-8
2021/10/27 02:59:50;;;;;;;1.60;1.50;;;20.10;48.60;;;23.89;32.42;101548.34;5033628;28;20049;-7
2021/10/27 03:02:16;;;;;;;1.63;1.52;;;20.10;48.60;;;23.92;32.36;101549.94;5052092;28;20103;-8
2021/10/27 03:04:42;;;;;;;1.67;1.58;;;20.00;48.60;;;23.91;32.47;101548.22;5052306;28;20065;-7
2021/10/27 03:07:08;;;;;;;1.85;1.75;;;20.00;48.80;;;23.86;32.47;101541.34;5052041;28;20041;-7
2021/10/27 03:09:34;;;;;;;2.63;1.80;;;20.00;48.90;;;23.89;32.58;101551.00;5052299;28;20044;-7
2021/10/27 03:12:00;;;;;;;2.28;1.60;;;20.00;49.00;;;23.92;32.68;101549.94;5052276;28;20136;-8
2021/10/27 03:14:28;;;;;;;2.10;1.80;;;20.00;48.70;;;23.92;32.56;101545.44;5050626;28;20045;-7
2021/10/27 03:16:55;;;;;;;1.60;1.50;;;20.10;48.70;;;23.93;32.56;101540.97;5051976;28;20143;-7
2021/10/27 03:19:21;;;;;;;1.50;1.40;;;20.10;48.60;;;23.93;32.64;101555.19;5051671;28;20123;-7
2021/10/27 03:21:47;;;;;;;1.73;1.63;;;20.20;48.60;;;23.97;32.53;101545.16;5051824;28;20048;-7
2021/10/27 03:24:13;;;;;;;1.60;1.50;;;20.20;48.50;;;23.98;32.58;101552.22;5033923;28;20056;-8
2021/10/27 03:26:39;;;;;;;1.80;1.50;;;20.30;48.40;;;23.98;32.74;101542.38;5051870;28;20049;-7
2021/10/27 03:29:04;;;;;;;2.40;1.60;;;20.30;48.30;;;24.01;32.55;101549.34;5051811;28;20051;-7
2021/10/27 03:31:30;;;;;;;1.60;1.50;;;20.40;48.30;;;24.05;32.73;101550.88;5052098;28;20071;-7
2021/10/27 03:33:57;;;;;;;2.13;1.50;;;20.50;48.20;;;24.10;32.69;101550.56;5051763;28;20404;-7
2021/10/27 03:36:24;;;;;;;2.83;1.73;;;20.40;48.20;;;24.09;32.48;101551.50;5053692;28;20375;-8
2021/10/27 03:38:50;;;;;;;1.60;1.35;;;20.50;48.10;;;24.14;32.62;101558.31;5053762;28;20546;-7
2021/10/27 03:41:17;;;;;;;1.88;1.42;;;20.60;48.10;;;24.17;32.72;101562.56;5055152;28;20041;-7
2021/10/27 03:43:43;;;;;;;2.00;1.58;;;20.60;47.90;;;24.17;32.55;101558.09;5055488;28;20063;-8
2021/10/27 03:46:10;;;;;;;2.00;1.33;;;20.60;47.90;;;24.22;32.47;101557.78;5055191;28;20056;-7
2021/10/27 03:48:40;;;;;;;1.65;1.55;;;20.70;47.80;;;24.24;32.54;101566.59;5054875;28;20048;-7
2021/10/27 03:51:08;;;;;;;1.73;1.60;;;20.70;47.80;;;24.28;32.45;101567.25;5054666;28;20099;-7
2021/10/27 03:53:35;;;;;;;1.52;1.40;;;20.70;47.70;;;24.29;32.55;101563.59;5055464;28;20049;-7
2021/10/27 03:56:00;;;;;;;1.80;1.70;;;20.80;47.70;;;24.33;32.54;101567.78;5054360;28;20443;-7
2021/10/27 03:58:26;;;;;;;2.15;1.75;;;20.80;47.60;;;24.36;32.47;101571.13;5055074;28;20045;-7
2021/10/27 04:00:52;;;;;;;2.70;1.70;;;20.80;47.50;;;24.40;32.31;101585.97;5034815;28;20080;-7
2021/10/27 04:03:22;;;;;;;2.30;1.70;;;20.80;47.50;;;24.42;32.34;101580.53;5054621;28;20477;-7
2021/10/27 04:05:49;;;;;;;1.30;1.20;;;20.90;47.50;;;24.47;32.23;101591.78;5055014;28;20091;-8
2021/10/27 04:08:16;;;;;;;1.98;1.50;;;20.90;47.50;;;24.47;32.35;101581.09;5054631;28;20106;-7
2021/10/27 04:10:45;;;;;;;1.58;1.33;;;20.90;47.40;;;24.48;32.22;101600.69;5054626;28;20045;-7
2021/10/27 04:13:14;;;;;;;1.38;1.27;;;20.90;47.40;;;24.50;32.40;101596.94;5054974;28;20041;-8
2021/10/27 04:15:40;;;;;;;2.22;1.52;;;20.90;47.30;;;24.50;32.08;101588.06;5054509;28;20510;-7
2021/10/27 04:18:06;;;;;;;1.98;1.63;;;21.00;47.40;;;24.52;32.29;101599.50;5054457;28;20072;-7
2021/10/27 04:20:32;;;;;;;1.30;1.20;;;21.00;47.40;;;24.55;32.01;101599.34;5054395;28;20140;-8
2021/10/27 04:22:58;;;;;;;2.10;1.42;;;21.00;47.40;;;24.53;32.06;101591.41;5054347;28;20045;-7
2021/10/27 04:25:24;;;;;;;1.40;1.30;;;21.00;47.30;;;24.55;32.08;101599.34;5054438;28;20053;-7
2021/10/27 04:27:50;;;;;;;2.05;1.40;;;21.00;47.30;;;24.57;32.20;101597.44;5054527;28;20376;-7
2021/10/27 04:30:15;;;;;;;1.35;1.25;;;20.90;47.30;;;24.58;32.01;101602.69;5036544;28;20098;-7
2021/10/27 04:32:41;;;;;;;1.63;1.27;;;21.00;47.40;;;24.59;32.16;101599.06;5054277;28;20436;-7
2021/10/27 04:35:09;;;;;;;2.10;1.30;;;21.00;47.30;;;24.59;32.14;101592.81;5054300;28;20060;-7
2021/10/27 04:37:38;;;;;;;2.38;1.30;;;20.90;47.30;;;24.56;32.17;101580.53;5054008;28;20055;-7
2021/10/27 04:40:06;;;;;;;1.83;1.45;;;20.90;47.60;;;24.56;32.10;101588.56;5054200;28;20044;-7
2021/10/27 04:42:32;;;;;;;1.63;1.52;;;20.80;47.60;;;24.58;32.19;101586.63;5054320;28;20040;-7
2021/10/27 04:44:58;;;;;;;1.60;1.30;;;20.80;47.60;;;24.56;32.04;101585.88;5054506;28;20473;-7
2021/10/27 04:47:24;;;;;;;1.38;1.27;;;20.80;47.70;;;24.57;31.87;101584.94;5052867;28;20045;-9
2021/10/27 04:49:50;;;;;;;1.40;1.30;;;20.70;47.80;;;24.58;32.14;101585.78;5054333;28;20055;-8
2021/10/27 04:52:16;;;;;;;1.98;1.55;;;20.80;47.70;;;24.54;32.04;101579.75;5054072;28;20374;-8
2021/10/27 04:54:42;;;;;;;2.20;1.48;;;20.70;47.80;;;24.55;32.05;101588.66;5054413;28;20178;-7
2021/10/27 04:57:09;;;;;;;2.00;1.40;;;20.60;47.90;;;24.53;31.94;101590.53;5054012;28;20088;-7
2021/10/27 04:59:45;;;;;;;1.60;1.48;;;20.60;48.00;;;24.55;32.20;101592.19;5054014;28;20146;-7
2021/10/27 05:02:13;;;;;;;1.35;1.25;;;20.60;48.00;;;24.54;32.08;101589.56;5054112;28;20478;-7
2021/10/27 05:04:41;;;;;;;1.38;1.27;;;20.60;48.10;;;24.52;31.95;101599.50;5053755;28;20132;-7
2021/10/27 05:07:09;;;;;;;1.70;1.40;;;20.60;48.20;;;24.55;31.95;101604.69;5019471;28;20048;-8
2021/10/27 05:09:34;;;;;;;3.28;1.73;;;20.50;48.20;;;24.53;32.05;101595.91;5054147;28;20049;-7
2021/10/27 05:12:01;;;;;;;1.50;1.25;;;20.50;48.30;;;24.50;32.07;101612.97;5053752;28;20056;-7
2021/10/27 05:14:27;;;;;;;1.38;1.25;;;20.50;48.10;;;24.51;31.92;101611.19;5053833;28;20052;-7
2021/10/27 05:16:53;;;;;;;1.50;1.40;;;20.60;48.20;;;24.54;31.99;101613.63;5035730;28;20520;-7
2021/10/27 05:19:19;;;;;;;1.40;1.30;;;20.60;48.20;;;24.54;32.13;101614.50;5053403;28;20037;-7
2021/10/27 05:21:45;;;;;;;1.65;1.30;;;20.60;48.00;;;24.52;32.02;101615.56;5053787;28;20045;-7
2021/10/27 05:24:10;;;;;;;1.85;1.23;;;20.60;47.90;;;24.51;32.20;101608.50;5053694;28;20056;-8
2021/10/27 05:26:36;;;;;;;1.65;1.55;;;20.60;47.90;;;24.52;32.04;101607.53;5053899;28;20053;-7
2021/10/27 05:29:02;;;;;;;1.85;1.27;;;20.60;48.10;;;24.51;32.21;101601.34;5053670;28;20060;-7
2021/10/27 05:31:27;;;;;;;1.95;1.60;;;20.60;48.20;;;24.52;32.12;101608.38;5053327;28;20163;-7
2021/10/27 05:33:53;;;;;;;1.20;1.10;;;20.60;48.10;;;24.55;32.05;101618.06;5053259;28;20100;-7
2021/10/27 05:36:21;;;;;;;1.67;1.58;;;20.60;48.10;;;24.50;32.14;101610.31;5053247;28;20045;-7
2021/10/27 05:38:47;;;;;;;2.15;1.60;;;20.60;48.20;;;24.50;31.96;101612.97;5053100;28;20409;-7
2021/10/27 05:41:13;;;;;;;1.88;1.38;;;20.60;48.10;;;24.50;32.01;101610.31;5053140;28;20052;-7
2021/10/27 05:43:39;;;;;;;1.55;1.33;;;20.70;48.20;;;24.52;32.11;101608.38;5053090;28;20049;-7
2021/10/27 05:46:06;;;;;;;1.35;1.25;;;20.70;48.20;;;24.51;32.20;101609.34;5035499;28;20187;-7
2021/10/27 05:48:37;;;;;;;1.40;1.30;;;20.70;48.10;;;24.54;32.26;101611.84;5053192;28;20063;-7
2021/10/27 05:56:20;;;;;;;2.15;1.60;;;20.80;48.30;;;24.51;32.24;101600.50;5052870;28;20132;-7
2021/10/27 05:58:50;;;;;;;1.70;1.38;;;20.80;48.30;;;24.56;32.29;101611.78;5052688;28;20055;-7
2021/10/27 06:01:16;;;;;;;1.80;1.33;;;20.80;48.30;;;24.54;32.27;101610.97;5053184;28;20406;-7
2021/10/27 06:03:42;;;;;;;3.15;1.70;;;20.80;48.30;;;24.54;32.49;101605.63;5052788;28;20045;-7
2021/10/27 06:06:09;;;;;;;4.07;1.80;;;20.80;48.30;;;24.55;32.37;101612.72;5052822;28;20053;-7
2021/10/27 06:08:34;;;;;;;3.60;1.50;;;20.80;48.30;;;24.55;32.40;101613.56;5052457;28;20061;-7
2021/10/27 06:11:11;;;;;;;1.52;1.20;;;20.80;48.30;;;24.56;32.38;101607.28;5052494;28;20398;-7
2021/10/27 06:13:45;;;;;;;1.92;1.40;;;20.80;48.40;;;24.55;32.49;101618.91;5052473;28;20139;-7
2021/10/27 06:16:13;;;;;;;1.40;1.30;;;20.80;48.40;;;24.55;32.57;101621.59;5052922;28;20045;-7
2021/10/27 06:18:40;;;;;;;1.67;1.58;;;20.80;48.40;;;24.52;32.46;101616.41;5051168;28;20049;-7
2021/10/27 06:21:11;;;;;;;1.88;1.70;;;20.80;48.50;;;24.52;32.41;101621.75;5052444;28;20119;-7
2021/10/27 06:23:38;;;;;;;;;;;20.80;48.50;;;24.69;32.13;101630.53;5035155;28;20055;-7
2021/10/27 06:26:04;;;;;;;1.63;1.50;;;20.80;48.50;;;24.60;32.34;101635.50;5052206;28;20335;-7
2021/10/27 06:28:35;;;;;;;1.48;1.17;;;20.80;48.40;;;24.53;32.39;101623.47;5052489;28;20049;-7
2021/10/27 06:46:54;;;;;;;1.58;1.40;;;20.70;48.50;;;24.51;32.63;101633.41;5051446;28;20057;-7
2021/10/27 06:49:20;;;;;;;2.25;1.50;;;20.70;48.60;;;24.54;32.61;101637.69;5052196;28;20439;-7
2021/10/27 06:51:46;;;;;;;2.55;1.70;;;20.70;48.60;;;24.54;32.58;101637.69;5052742;28;20132;-7
2021/10/27 06:54:12;;;;;;;3.83;1.42;;;20.70;48.60;;;24.53;32.53;101638.66;5052146;28;20135;-7
2021/10/27 06:56:38;;;;;;;1.90;1.40;;;20.70;48.60;;;24.52;32.64;101648.47;5052185;28;20076;-7
2021/10/27 07:15:37;;;;;;;1.50;1.40;;;20.70;48.60;;;24.51;32.49;101632.56;5055566;28;20465;-19
2021/10/27 07:17:51;;;;;;;1.75;1.40;;;20.70;49.10;;;24.52;32.62;101637.78;5054583;28;20060;-8
2021/10/27 07:20:18;;;;;;;1.70;1.40;;;20.70;48.60;;;24.55;32.66;101631.44;5055172;28;20053;-7
2021/10/27 07:22:44;;;;;;;1.70;1.48;;;20.70;48.60;;;24.55;32.70;101642.97;5053837;28;20056;-7
2021/10/27 07:25:13;;;;;;;1.58;1.48;;;20.70;48.60;;;24.57;32.49;101648.22;5055321;28;20554;-7
2021/10/27 07:27:39;;;;;;;2.38;1.88;;;20.70;48.50;;;24.55;32.61;101645.66;5055287;28;20041;-8
2021/10/27 07:30:05;;;;;;;2.15;1.33;;;20.80;48.60;;;24.52;32.58;101640.47;5055261;28;20053;-7
2021/10/27 07:32:31;;;;;;;1.55;1.35;;;20.70;48.60;;;24.55;32.65;101642.97;5055225;28;20131;-7
2021/10/27 07:35:03;;;;;;;2.83;1.60;;;20.80;48.60;;;24.55;32.66;101645.66;5055143;28;20040;-7
2021/10/27 07:43:03;;;;;;;1.90;1.40;;;20.80;48.50;;;24.57;32.61;101662.47;5038298;28;20080;-8
2021/10/27 07:45:31;;;;;;;1.88;1.50;;;20.80;49.10;;;24.58;32.48;101666.84;5055336;28;20388;-7
2021/10/27 07:47:58;;;;;;;3.08;1.40;;;20.80;48.50;;;24.54;32.48;101667.09;5054938;28;20525;-6
2021/10/27 07:50:27;;;;;;;5.15;1.40;;;20.80;48.50;;;24.56;32.58;101676.78;5054938;28;20500;-9
2021/10/27 07:52:54;;;;;;;3.58;1.60;;;20.80;48.50;;;24.57;32.65;101677.63;5054819;28;20095;-8
2021/10/27 07:55:20;;;;;;;1.70;1.60;;;20.80;48.40;;;24.59;32.48;101683.75;5055158;28;20088;-8
2021/10/27 07:57:47;;;;;;;3.03;1.50;;;20.90;48.50;;;24.59;32.74;101687.28;5036841;28;20416;-8
2021/10/27 08:00:19;;;;;;;3.88;1.40;;;20.90;48.50;;;24.58;32.57;101685.56;5036922;28;20068;-9
2021/10/27 08:02:46;;;;;;;3.55;1.85;;;20.80;48.50;;;24.57;32.39;101686.53;5054972;28;20048;-9
2021/10/27 08:05:12;;;;;;;3.45;1.48;;;20.90;48.50;;;24.59;32.64;101699.78;5054734;28;20048;-9
2021/10/27 08:07:49;;;;;;;3.97;1.60;;;20.90;48.50;;;24.59;32.56;101695.31;5054712;28;20397;-9
2021/10/27 08:10:19;;;;;;;2.90;1.63;;;20.80;48.50;;;24.60;32.60;101696.16;5054507;28;20053;-9
2021/10/27 08:12:48;;;;;;;2.88;1.85;;;20.80;48.50;;;24.58;32.67;101700.75;5053272;28;20145;-9
2021/10/27 08:15:16;;;;;;;5.80;1.85;;;20.80;48.60;;;24.61;32.69;101711.25;5054600;28;20397;-9
2021/10/27 08:17:42;;;;;;;2.83;1.50;;;20.80;48.50;;;24.60;32.56;101712.19;5054801;28;20053;-9
2021/10/27 08:20:11;;;;;;;2.35;1.70;;;20.90;48.60;;;24.60;32.69;101721.06;5054433;28;20045;-9
2021/10/27 08:22:38;;;;;;;2.65;1.65;;;20.90;48.60;;;24.60;32.57;101713.06;5054288;28;20049;-9
2021/10/27 08:25:07;;;;;;;4.30;1.50;;;20.90;48.50;;;24.59;32.47;101708.69;5034202;28;20045;-9
2021/10/27 08:27:37;;;;;;;4.80;1.70;;;20.90;48.60;;;24.62;32.72;101720.97;5036315;28;20045;-8
2021/10/27 08:30:07;;;;;;;4.70;1.77;;;20.90;48.60;;;24.59;32.60;101713.16;5054649;28;20128;-8
2021/10/27 08:32:49;;;;;;;4.03;1.75;;;20.90;48.60;;;24.57;32.51;101707.94;5052863;28;20049;-7
2021/10/27 08:35:15;;;;;;;4.78;1.98;;;20.80;48.70;;;24.61;32.59;101711.25;5054558;28;20045;-7
2021/10/27 08:37:46;;;;;;;4.55;1.60;;;20.90;48.60;;;24.62;32.65;101712.09;5054219;28;20076;-7
2021/10/27 08:40:16;;;;;;;1.83;1.48;;;20.90;48.60;;;24.63;32.50;101722.72;5054126;28;20131;-7
2021/10/27 08:42:43;;;;;;;4.18;1.85;;;20.90;48.60;;;24.60;32.61;101710.38;5054151;28;20045;-7
2021/10/27 08:45:10;;;;;;;3.63;1.77;;;20.90;48.60;;;24.63;32.73;101712.00;5054246;28;20048;-7
2021/10/27 08:47:41;;;;;;;4.72;1.80;;;20.90;48.70;;;24.60;32.50;101709.53;5054062;28;20045;-8
2021/10/27 08:50:13;;;;;;;3.65;1.67;;;20.90;48.70;;;24.60;32.56;101715.72;5054546;28;20067;-7
2021/10/27 08:52:40;;;;;;;6.03;2.08;;;20.90;48.60;;;24.63;32.73;101711.16;5036731;28;20473;-7
2021/10/27 08:55:10;;;;;;;5.95;2.15;;;20.90;48.70;;;24.64;32.62;101718.22;5054360;28;20049;-7
2021/10/27 08:57:36;;;;;;;4.05;1.85;;;20.90;48.60;;;24.65;32.54;101717.25;5053787;28;20087;-8
2021/10/27 09:33:40;;;;;;;6.32;2.10;;;20.90;48.80;;;24.61;32.79;101721.97;5053964;28;20059;-8
2021/10/27 09:36:12;;;;;;;3.35;1.90;;;20.80;48.70;;;24.60;32.63;101718.41;5053024;28;20083;-8
2021/10/27 09:39:24;;;;;;;3.35;1.70;;;20.90;48.80;;;24.63;32.75;101724.53;5053500;28;20052;-8
2021/10/27 09:42:19;;;;;;;4.40;1.90;;;20.80;48.80;;;24.65;32.66;101718.13;5053587;28;20037;-7
2021/10/27 10:04:24;;;;;;;4.82;2.08;;;20.80;48.90;;;24.63;32.75;101725.38;5036540;28;20100;-8
2021/10/27 10:06:56;;;;;;;5.10;1.80;;;20.90;48.90;;;24.66;32.76;101729.66;5037780;28;20385;-7
2021/10/27 10:09:22;;;;;;;6.10;2.20;;;20.90;48.90;;;24.65;32.82;101723.47;5052863;28;20051;-8
2021/10/27 10:11:49;;;;;;;4.88;1.92;;;20.90;48.90;;;24.64;32.77;101726.22;5052918;28;20044;-8
2021/10/27 10:14:18;;;;;;;5.07;2.17;;;20.80;48.80;;;24.65;32.76;101726.13;5053051;28;20068;-8
2021/10/27 10:16:50;;;;;;;2.95;1.73;;;20.90;48.90;;;24.64;32.72;101729.78;5053002;28;20048;-19
2021/10/27 10:19:36;;;;;;;6.28;2.00;;;20.90;48.90;;;24.63;32.84;101727.22;5052936;28;20047;-8
2021/10/27 10:22:04;;;;;;;5.53;2.42;;;20.80;48.90;;;24.68;32.83;101739.31;5052575;28;20049;-8
2021/10/27 10:24:38;;;;;;;5.95;2.25;;;20.90;49.00;;;24.63;32.81;101733.41;5052382;28;20568;-8
2021/10/27 10:27:13;;;;;;;6.75;2.28;;;20.90;48.90;;;24.68;32.73;101743.81;5052904;28;20493;-8
2021/10/27 10:29:46;;;;;;;4.10;1.98;;;20.90;48.90;;;24.67;32.75;101739.41;5052558;28;20067;-8
2021/10/27 10:32:19;;;;;;;3.88;2.00;;;20.90;48.80;;;24.70;32.84;101737.41;5052832;28;20055;-8
2021/10/27 10:34:52;;;;;;;7.47;2.10;;;20.90;48.90;;;24.69;32.89;101738.38;5052519;28;20075;-9
2021/10/27 10:37:39;;;;;;;6.70;2.70;;;20.90;49.40;;;24.71;32.58;101743.63;5052353;28;20468;-10
2021/10/27 10:40:45;;;;;;;6.03;2.08;;;20.90;48.70;;;24.69;32.75;101746.41;5052236;28;20049;-9
2021/10/27 10:43:24;;;;;;;3.83;2.13;;;20.90;48.90;;;24.72;32.61;101754.19;5052357;28;20059;-9
2021/10/27 10:46:04;;;;;;;4.20;2.10;;;20.90;48.80;;;24.71;32.70;101763.19;5053626;28;20045;-9
2021/10/27 10:57:49;;;;;;;5.03;2.13;;;20.90;48.80;;;24.70;32.84;101748.09;5056038;28;20037;-9
2021/10/27 11:11:52;;;;;;;6.85;2.75;;;20.80;49.10;;;24.69;32.94;101762.44;5038464;28;20063;-6
2021/10/27 11:40:29;;;;;;;5.07;2.47;;;20.90;49.00;;;24.67;32.92;101766.16;5055104;28;20096;-9
2021/10/27 11:43:02;;;;;;;11.02;2.85;;;20.90;49.00;;;24.68;32.93;101760.72;5055306;28;20049;-9
2021/10/27 11:48:03;;;;;;;5.88;2.25;;;20.90;49.00;;;24.71;32.79;101757.00;5054821;28;20408;-9
2021/10/27 11:50:35;;;;;;;;;;;20.90;49.00;;;24.85;32.59;101767.66;5055664;28;20045;-9
2021/10/27 11:53:05;;;;;;;7.38;2.30;;;20.90;49.00;;;24.77;32.64;101759.25;5054962;28;19943;-8
2021/10/27 11:55:34;;;;;;;8.65;2.67;;;20.90;49.00;;;24.72;32.71;101750.66;5055212;28;20084;-8
2021/10/27 11:58:01;;;;;;;5.18;2.53;;;20.90;49.00;;;24.70;32.80;101753.44;5054279;28;20041;-9
2021/10/27 12:00:38;;;;;;;8.45;2.72;;;20.90;49.10;;;24.69;33.02;101741.03;5054810;28;20052;-9
2021/10/27 12:03:16;;;;;;;7.70;2.80;;;20.90;49.10;;;24.71;33.04;101752.50;5053733;28;20087;-9
2021/10/27 12:11:16;;;;;;;9.15;2.60;;;20.90;49.10;;;24.70;32.98;101755.25;5054930;28;20389;-9
2021/10/27 12:14:00;;;;;;;6.20;2.35;;;20.90;49.10;;;24.70;32.86;101745.41;5054477;28;20049;-9
2021/10/27 12:19:28;;;;;;;4.95;2.28;;;20.90;49.20;;;24.70;32.91;101756.13;5054807;28;20049;-9
2021/10/27 12:22:08;;;;;;;5.55;2.35;;;20.90;49.20;;;24.71;32.88;101748.97;5054538;28;20053;-8
2021/10/27 12:24:40;;;;;;;6.15;2.42;;;20.90;49.10;;;24.68;32.90;101741.13;5054307;28;20131;-8
2021/10/27 12:27:23;;;;;;;9.70;2.97;;;20.90;49.10;;;24.68;33.01;101744.66;5054704;28;20128;-9
2021/10/27 12:29:58;;;;;;;13.10;2.78;;;20.90;49.20;;;24.68;32.88;101733.97;5054694;28;20408;-9
2021/10/27 12:32:26;;;;;;;6.70;2.50;;;20.90;49.20;;;24.68;32.91;101733.97;5020029;28;20048;-9
2021/10/27 12:34:58;;;;;;;4.40;2.83;;;20.90;49.30;;;24.68;32.90;101733.97;5054100;28;20427;-9
2021/10/27 12:37:42;;;;;;;5.50;2.67;;;20.90;49.20;;;24.71;33.00;101739.13;5054234;28;20110;-9
2021/10/27 12:40:36;;;;;;;9.20;3.15;;;20.90;49.20;;;24.71;32.90;101730.25;5054009;28;20052;-9
2021/10/27 12:43:14;;;;;;;8.93;2.60;;;20.90;49.20;;;24.71;32.90;101731.09;5054079;28;20401;-9
2021/10/27 12:45:57;;;;;;;6.30;2.30;;;20.90;49.20;;;24.72;32.88;101731.94;5054442;28;20049;-9
2021/10/27 12:48:24;;;;;;;4.63;2.25;;;20.90;49.20;;;24.72;32.81;101735.47;5054005;28;20102;-9
2021/10/27 12:51:03;;;;;;;6.60;2.60;;;20.90;49.20;;;24.70;32.96;101734.72;5053829;28;20501;-8
2021/10/27 12:53:34;;;;;;;6.47;2.60;;;20.90;49.30;;;24.71;33.12;101747.16;5054017;28;20048;-9
2021/10/27 12:56:13;;;;;;;9.57;2.72;;;20.90;49.40;;;24.69;33.12;101727.66;5053857;28;20502;-9
2021/10/27 12:58:51;;;;;;;5.28;2.50;;;20.90;49.40;;;24.70;32.92;101734.72;5053752;28;20501;-9
2021/10/27 13:01:32;;;;;;;4.43;2.33;;;20.90;49.40;;;24.68;33.03;101725.94;5052672;28;20051;-9